sensor_id;sensor_type;location;lat;lon;timestamp;P1;durP1;ratioP1;P2;durP2;ratioP2
36709;SDS011;22694;51.040;3.684;2023-01-29T00:02:06;11.95;;;10.25;;
36709;SDS011;22694;51.040;3.684;2023-01-29T00:04:32;13.85;;;10.40;;
36709;SDS011;22694;51.040;3.684;2023-01-29T00:06:58;13.40;;;11.10;;
36709;SDS011;22694;51.040;3.684;2023-01-29T00:09:23;13.93;;;10.68;;
36709;SDS011;22694;51.040;3.684;2023-01-29T00:11:49;12.82;;;11.27;;
36709;SDS011;22694;51.040;3.684;2023-01-29T00:14:15;13.85;;;11.38;;
36709;SDS011;22694;51.040;3.684;2023-01-29T00:16:40;14.32;;;11.10;;
36709;SDS011;22694;51.040;3.684;2023-01-29T00:19:06;13.60;;;11.13;;
36709;SDS011;22694;51.040;3.684;2023-01-29T00:21:32;13.93;;;11.70;;
36709;SDS011;22694;51.040;3.684;2023-01-29T00:23:57;13.95;;;10.63;;
36709;SDS011;22694;51.040;3.684;2023-01-29T00:26:24;15.00;;;11.80;;
36709;SDS011;22694;51.040;3.684;2023-01-29T00:28:50;13.45;;;11.07;;
36709;SDS011;22694;51.040;3.684;2023-01-29T00:31:17;13.50;;;11.30;;
36709;SDS011;22694;51.040;3.684;2023-01-29T00:33:45;13.10;;;11.35;;
36709;SDS011;22694;51.040;3.684;2023-01-29T00:36:12;14.98;;;11.60;;
36709;SDS011;22694;51.040;3.684;2023-01-29T00:38:38;13.90;;;11.77;;
36709;SDS011;22694;51.040;3.684;2023-01-29T00:41:08;14.07;;;11.25;;
36709;SDS011;22694;51.040;3.684;2023-01-29T00:43:56;15.82;;;11.70;;
36709;SDS011;22694;51.040;3.684;2023-01-29T00:46:41;14.25;;;11.35;;
36709;SDS011;22694;51.040;3.684;2023-01-29T00:49:07;13.52;;;12.05;;
36709;SDS011;22694;51.040;3.684;2023-01-29T00:51:33;14.80;;;12.23;;
36709;SDS011;22694;51.040;3.684;2023-01-29T00:54:00;13.95;;;12.10;;
36709;SDS011;22694;51.040;3.684;2023-01-29T00:56:26;15.80;;;12.23;;
36709;SDS011;22694;51.040;3.684;2023-01-29T00:58:53;15.68;;;12.05;;
36709;SDS011;22694;51.040;3.684;2023-01-29T01:01:19;14.48;;;12.40;;
36709;SDS011;22694;51.040;3.684;2023-01-29T01:04:06;14.90;;;12.27;;
36709;SDS011;22694;51.040;3.684;2023-01-29T01:06:32;13.88;;;11.73;;
36709;SDS011;22694;51.040;3.684;2023-01-29T01:08:58;14.68;;;12.10;;
36709;SDS011;22694;51.040;3.684;2023-01-29T01:11:46;14.90;;;12.65;;
36709;SDS011;22694;51.040;3.684;2023-01-29T01:14:12;15.13;;;12.27;;
36709;SDS011;22694;51.040;3.684;2023-01-29T01:16:38;15.80;;;12.45;;
36709;SDS011;22694;51.040;3.684;2023-01-29T01:19:03;14.68;;;12.32;;
36709;SDS011;22694;51.040;3.684;2023-01-29T01:21:29;13.63;;;11.90;;
36709;SDS011;22694;51.040;3.684;2023-01-29T01:23:55;14.20;;;12.50;;
36709;SDS011;22694;51.040;3.684;2023-01-29T01:26:20;16.75;;;12.05;;
36709;SDS011;22694;51.040;3.684;2023-01-29T01:28:46;17.02;;;12.77;;
36709;SDS011;22694;51.040;3.684;2023-01-29T01:31:12;15.40;;;13.15;;
36709;SDS011;22694;51.040;3.684;2023-01-29T01:33:38;14.65;;;12.30;;
36709;SDS011;22694;51.040;3.684;2023-01-29T01:36:04;13.85;;;11.93;;
36709;SDS011;22694;51.040;3.684;2023-01-29T01:38:37;15.35;;;12.10;;
36709;SDS011;22694;51.040;3.684;2023-01-29T01:41:09;13.85;;;12.18;;
36709;SDS011;22694;51.040;3.684;2023-01-29T01:43:49;16.05;;;12.55;;
36709;SDS011;22694;51.040;3.684;2023-01-29T01:46:20;16.23;;;12.45;;
36709;SDS011;22694;51.040;3.684;2023-01-29T01:48:47;15.65;;;12.65;;
36709;SDS011;22694;51.040;3.684;2023-01-29T01:53:55;15.93;;;12.32;;
36709;SDS011;22694;51.040;3.684;2023-01-29T01:56:26;15.88;;;12.90;;
36709;SDS011;22694;51.040;3.684;2023-01-29T01:59:02;15.18;;;12.18;;
36709;SDS011;22694;51.040;3.684;2023-01-29T02:01:32;14.82;;;12.27;;
36709;SDS011;22694;51.040;3.684;2023-01-29T02:04:01;15.15;;;12.13;;
36709;SDS011;22694;51.040;3.684;2023-01-29T02:06:49;16.58;;;12.68;;
36709;SDS011;22694;51.040;3.684;2023-01-29T02:09:40;14.43;;;11.88;;
36709;SDS011;22694;51.040;3.684;2023-01-29T02:12:11;13.52;;;12.13;;
36709;SDS011;22694;51.040;3.684;2023-01-29T02:14:40;13.38;;;11.75;;
36709;SDS011;22694;51.040;3.684;2023-01-29T02:17:07;14.75;;;12.30;;
36709;SDS011;22694;51.040;3.684;2023-01-29T02:22:45;15.90;;;12.23;;
36709;SDS011;22694;51.040;3.684;2023-01-29T02:30:49;14.23;;;12.48;;
36709;SDS011;22694;51.040;3.684;2023-01-29T02:33:47;14.60;;;12.23;;
36709;SDS011;22694;51.040;3.684;2023-01-29T02:39:23;14.40;;;12.07;;
36709;SDS011;22694;51.040;3.684;2023-01-29T02:42:12;14.93;;;11.73;;
36709;SDS011;22694;51.040;3.684;2023-01-29T02:44:40;15.45;;;12.82;;
36709;SDS011;22694;51.040;3.684;2023-01-29T02:50:16;15.55;;;13.10;;
36709;SDS011;22694;51.040;3.684;2023-01-29T02:52:51;16.85;;;11.88;;
36709;SDS011;22694;51.040;3.684;2023-01-29T02:55:27;13.70;;;11.73;;
36709;SDS011;22694;51.040;3.684;2023-01-29T02:58:29;14.93;;;12.10;;
36709;SDS011;22694;51.040;3.684;2023-01-29T03:01:21;14.80;;;12.80;;
36709;SDS011;22694;51.040;3.684;2023-01-29T03:03:55;13.98;;;12.00;;
36709;SDS011;22694;51.040;3.684;2023-01-29T03:06:26;13.40;;;12.00;;
36709;SDS011;22694;51.040;3.684;2023-01-29T03:09:00;17.00;;;12.77;;
36709;SDS011;22694;51.040;3.684;2023-01-29T03:14:16;14.68;;;12.60;;
36709;SDS011;22694;51.040;3.684;2023-01-29T03:16:51;13.85;;;11.52;;
36709;SDS011;22694;51.040;3.684;2023-01-29T03:19:33;15.25;;;12.02;;
36709;SDS011;22694;51.040;3.684;2023-01-29T03:22:04;15.13;;;12.05;;
36709;SDS011;22694;51.040;3.684;2023-01-29T03:27:23;14.43;;;12.52;;
36709;SDS011;22694;51.040;3.684;2023-01-29T03:30:13;17.55;;;13.00;;
36709;SDS011;22694;51.040;3.684;2023-01-29T03:33:01;14.20;;;11.63;;
36709;SDS011;22694;51.040;3.684;2023-01-29T03:35:30;14.82;;;12.63;;
36709;SDS011;22694;51.040;3.684;2023-01-29T03:38:05;12.98;;;11.20;;
36709;SDS011;22694;51.040;3.684;2023-01-29T03:40:35;14.15;;;12.32;;
36709;SDS011;22694;51.040;3.684;2023-01-29T03:43:28;13.10;;;11.70;;
36709;SDS011;22694;51.040;3.684;2023-01-29T03:46:03;14.25;;;11.88;;
36709;SDS011;22694;51.040;3.684;2023-01-29T03:51:27;15.52;;;11.43;;
36709;SDS011;22694;51.040;3.684;2023-01-29T03:54:15;13.87;;;11.33;;
36709;SDS011;22694;51.040;3.684;2023-01-29T03:59:56;15.35;;;12.20;;
36709;SDS011;22694;51.040;3.684;2023-01-29T04:02:37;16.50;;;12.75;;
36709;SDS011;22694;51.040;3.684;2023-01-29T04:05:27;13.77;;;11.82;;
36709;SDS011;22694;51.040;3.684;2023-01-29T04:08:04;15.38;;;11.95;;
36709;SDS011;22694;51.040;3.684;2023-01-29T04:10:34;14.45;;;12.18;;
36709;SDS011;22694;51.040;3.684;2023-01-29T04:13:04;14.35;;;11.98;;
36709;SDS011;22694;51.040;3.684;2023-01-29T04:15:35;14.57;;;12.13;;
36709;SDS011;22694;51.040;3.684;2023-01-29T04:18:06;17.20;;;12.15;;
36709;SDS011;22694;51.040;3.684;2023-01-29T04:20:32;14.63;;;12.32;;
36709;SDS011;22694;51.040;3.684;2023-01-29T04:22:59;14.07;;;11.93;;
36709;SDS011;22694;51.040;3.684;2023-01-29T04:25:26;14.38;;;12.43;;
36709;SDS011;22694;51.040;3.684;2023-01-29T04:31:05;14.35;;;12.07;;
36709;SDS011;22694;51.040;3.684;2023-01-29T04:33:53;14.50;;;12.52;;
36709;SDS011;22694;51.040;3.684;2023-01-29T04:36:35;15.52;;;12.38;;
36709;SDS011;22694;51.040;3.684;2023-01-29T04:41:58;14.20;;;11.90;;
36709;SDS011;22694;51.040;3.684;2023-01-29T04:44:46;14.68;;;11.95;;
36709;SDS011;22694;51.040;3.684;2023-01-29T04:47:36;14.15;;;11.50;;
36709;SDS011;22694;51.040;3.684;2023-01-29T04:50:23;13.77;;;11.18;;
36709;SDS011;22694;51.040;3.684;2023-01-29T04:55:44;13.80;;;11.88;;
36709;SDS011;22694;51.040;3.684;2023-01-29T05:00:51;14.20;;;12.25;;
36709;SDS011;22694;51.040;3.684;2023-01-29T05:03:18;13.88;;;12.35;;
36709;SDS011;22694;51.040;3.684;2023-01-29T05:05:47;14.27;;;11.48;;
36709;SDS011;22694;51.040;3.684;2023-01-29T05:08:15;15.43;;;12.15;;
36709;SDS011;22694;51.040;3.684;2023-01-29T05:10:44;15.65;;;11.77;;
36709;SDS011;22694;51.040;3.684;2023-01-29T05:13:12;13.93;;;11.90;;
36709;SDS011;22694;51.040;3.684;2023-01-29T05:15:41;13.60;;;12.13;;
36709;SDS011;22694;51.040;3.684;2023-01-29T05:18:11;11.63;;;9.32;;
36709;SDS011;22694;51.040;3.684;2023-01-29T05:20:37;13.75;;;11.88;;
36709;SDS011;22694;51.040;3.684;2023-01-29T05:23:07;15.65;;;12.52;;
36709;SDS011;22694;51.040;3.684;2023-01-29T05:25:43;13.52;;;11.43;;
36709;SDS011;22694;51.040;3.684;2023-01-29T05:28:10;15.07;;;12.48;;
36709;SDS011;22694;51.040;3.684;2023-01-29T05:30:43;14.15;;;12.07;;
36709;SDS011;22694;51.040;3.684;2023-01-29T05:33:14;15.10;;;12.43;;
36709;SDS011;22694;51.040;3.684;2023-01-29T05:35:44;15.20;;;12.07;;
36709;SDS011;22694;51.040;3.684;2023-01-29T05:38:11;15.68;;;12.88;;
36709;SDS011;22694;51.040;3.684;2023-01-29T05:40:37;15.00;;;12.27;;
36709;SDS011;22694;51.040;3.684;2023-01-29T05:43:03;14.48;;;12.27;;
36709;SDS011;22694;51.040;3.684;2023-01-29T05:45:29;15.00;;;12.10;;
36709;SDS011;22694;51.040;3.684;2023-01-29T05:47:56;14.75;;;11.90;;
36709;SDS011;22694;51.040;3.684;2023-01-29T05:50:23;14.52;;;12.15;;
36709;SDS011;22694;51.040;3.684;2023-01-29T05:52:54;15.63;;;12.82;;
36709;SDS011;22694;51.040;3.684;2023-01-29T05:55:24;14.40;;;11.60;;
36709;SDS011;22694;51.040;3.684;2023-01-29T05:57:50;14.80;;;12.63;;
36709;SDS011;22694;51.040;3.684;2023-01-29T06:00:16;15.45;;;12.05;;
36709;SDS011;22694;51.040;3.684;2023-01-29T06:02:42;14.75;;;12.15;;
36709;SDS011;22694;51.040;3.684;2023-01-29T06:05:08;15.88;;;12.68;;
36709;SDS011;22694;51.040;3.684;2023-01-29T06:07:34;15.40;;;12.73;;
36709;SDS011;22694;51.040;3.684;2023-01-29T06:10:00;14.65;;;12.35;;
36709;SDS011;22694;51.040;3.684;2023-01-29T06:12:26;14.30;;;12.23;;
36709;SDS011;22694;51.040;3.684;2023-01-29T06:14:52;14.25;;;11.70;;
36709;SDS011;22694;51.040;3.684;2023-01-29T06:17:17;14.38;;;12.48;;
36709;SDS011;22694;51.040;3.684;2023-01-29T06:19:43;15.35;;;12.43;;
36709;SDS011;22694;51.040;3.684;2023-01-29T06:22:09;15.10;;;11.73;;
36709;SDS011;22694;51.040;3.684;2023-01-29T06:24:34;14.60;;;12.57;;
36709;SDS011;22694;51.040;3.684;2023-01-29T06:27:00;14.18;;;11.75;;
36709;SDS011;22694;51.040;3.684;2023-01-29T06:29:26;16.40;;;12.93;;
36709;SDS011;22694;51.040;3.684;2023-01-29T06:31:51;15.30;;;11.98;;
36709;SDS011;22694;51.040;3.684;2023-01-29T06:34:17;14.68;;;11.23;;
36709;SDS011;22694;51.040;3.684;2023-01-29T06:36:42;13.88;;;11.75;;
36709;SDS011;22694;51.040;3.684;2023-01-29T06:39:08;15.70;;;12.43;;
36709;SDS011;22694;51.040;3.684;2023-01-29T06:41:34;17.60;;;12.57;;
36709;SDS011;22694;51.040;3.684;2023-01-29T06:43:59;15.32;;;12.13;;
36709;SDS011;22694;51.040;3.684;2023-01-29T06:46:25;14.55;;;11.82;;
36709;SDS011;22694;51.040;3.684;2023-01-29T06:48:51;15.68;;;12.10;;
36709;SDS011;22694;51.040;3.684;2023-01-29T06:51:16;15.23;;;12.50;;
36709;SDS011;22694;51.040;3.684;2023-01-29T06:53:42;15.52;;;12.52;;
36709;SDS011;22694;51.040;3.684;2023-01-29T06:56:08;16.83;;;12.68;;
36709;SDS011;22694;51.040;3.684;2023-01-29T06:58:37;15.32;;;12.50;;
36709;SDS011;22694;51.040;3.684;2023-01-29T07:01:06;16.30;;;12.82;;
36709;SDS011;22694;51.040;3.684;2023-01-29T07:03:34;13.98;;;12.18;;
36709;SDS011;22694;51.040;3.684;2023-01-29T07:06:00;14.55;;;12.30;;
36709;SDS011;22694;51.040;3.684;2023-01-29T07:08:26;13.43;;;10.68;;
36709;SDS011;22694;51.040;3.684;2023-01-29T07:10:52;14.98;;;12.02;;
36709;SDS011;22694;51.040;3.684;2023-01-29T07:13:23;14.50;;;11.45;;
36709;SDS011;22694;51.040;3.684;2023-01-29T07:15:48;14.70;;;12.20;;
36709;SDS011;22694;51.040;3.684;2023-01-29T07:18:14;14.93;;;12.05;;
36709;SDS011;22694;51.040;3.684;2023-01-29T07:20:40;15.90;;;12.73;;
36709;SDS011;22694;51.040;3.684;2023-01-29T07:23:10;16.15;;;12.75;;
36709;SDS011;22694;51.040;3.684;2023-01-29T07:25:37;14.00;;;11.38;;
36709;SDS011;22694;51.040;3.684;2023-01-29T07:28:03;13.82;;;12.15;;
36709;SDS011;22694;51.040;3.684;2023-01-29T07:30:29;14.15;;;11.88;;
36709;SDS011;22694;51.040;3.684;2023-01-29T07:32:54;14.70;;;11.85;;
36709;SDS011;22694;51.040;3.684;2023-01-29T07:35:24;13.50;;;11.25;;
36709;SDS011;22694;51.040;3.684;2023-01-29T07:37:50;14.13;;;12.27;;
36709;SDS011;22694;51.040;3.684;2023-01-29T07:40:16;14.32;;;11.60;;
36709;SDS011;22694;51.040;3.684;2023-01-29T07:42:41;13.52;;;11.40;;
36709;SDS011;22694;51.040;3.684;2023-01-29T07:45:08;14.00;;;11.43;;
36709;SDS011;22694;51.040;3.684;2023-01-29T07:47:35;13.55;;;12.02;;
36709;SDS011;22694;51.040;3.684;2023-01-29T07:50:01;12.68;;;10.95;;
36709;SDS011;22694;51.040;3.684;2023-01-29T07:52:31;12.43;;;10.57;;
36709;SDS011;22694;51.040;3.684;2023-01-29T07:54:57;15.05;;;12.32;;
36709;SDS011;22694;51.040;3.684;2023-01-29T07:57:23;13.15;;;11.48;;
36709;SDS011;22694;51.040;3.684;2023-01-29T07:59:49;13.57;;;10.98;;
36709;SDS011;22694;51.040;3.684;2023-01-29T08:02:15;13.30;;;11.68;;
36709;SDS011;22694;51.040;3.684;2023-01-29T08:04:41;14.55;;;11.60;;
36709;SDS011;22694;51.040;3.684;2023-01-29T08:07:06;12.27;;;10.98;;
36709;SDS011;22694;51.040;3.684;2023-01-29T08:09:33;12.45;;;11.10;;
36709;SDS011;22694;51.040;3.684;2023-01-29T08:11:59;19.30;;;11.82;;
36709;SDS011;22694;51.040;3.684;2023-01-29T08:14:25;13.98;;;10.48;;
36709;SDS011;22694;51.040;3.684;2023-01-29T08:16:51;14.15;;;11.73;;
36709;SDS011;22694;51.040;3.684;2023-01-29T08:19:16;16.30;;;12.02;;
36709;SDS011;22694;51.040;3.684;2023-01-29T08:21:42;13.90;;;11.52;;
36709;SDS011;22694;51.040;3.684;2023-01-29T08:24:08;16.38;;;11.52;;
36709;SDS011;22694;51.040;3.684;2023-01-29T08:26:33;16.92;;;11.85;;
36709;SDS011;22694;51.040;3.684;2023-01-29T08:28:59;16.50;;;12.23;;
36709;SDS011;22694;51.040;3.684;2023-01-29T08:31:26;14.43;;;11.48;;
36709;SDS011;22694;51.040;3.684;2023-01-29T08:33:52;15.38;;;12.00;;
36709;SDS011;22694;51.040;3.684;2023-01-29T08:36:19;13.85;;;11.18;;
36709;SDS011;22694;51.040;3.684;2023-01-29T08:38:45;14.48;;;10.98;;
36709;SDS011;22694;51.040;3.684;2023-01-29T08:41:10;15.73;;;11.00;;
36709;SDS011;22694;51.040;3.684;2023-01-29T08:43:36;13.38;;;11.65;;
36709;SDS011;22694;51.040;3.684;2023-01-29T08:46:05;14.43;;;11.20;;
36709;SDS011;22694;51.040;3.684;2023-01-29T08:48:32;13.93;;;11.63;;
36709;SDS011;22694;51.040;3.684;2023-01-29T08:50:58;14.57;;;12.23;;
36709;SDS011;22694;51.040;3.684;2023-01-29T08:53:26;14.02;;;11.30;;
36709;SDS011;22694;51.040;3.684;2023-01-29T08:55:52;15.45;;;11.90;;
36709;SDS011;22694;51.040;3.684;2023-01-29T08:58:18;13.73;;;11.93;;
36709;SDS011;22694;51.040;3.684;2023-01-29T09:00:44;14.93;;;12.35;;
36709;SDS011;22694;51.040;3.684;2023-01-29T09:03:10;13.88;;;11.65;;
36709;SDS011;22694;51.040;3.684;2023-01-29T09:05:36;13.38;;;11.30;;
36709;SDS011;22694;51.040;3.684;2023-01-29T09:08:03;15.75;;;12.00;;
36709;SDS011;22694;51.040;3.684;2023-01-29T09:10:29;15.00;;;11.57;;
36709;SDS011;22694;51.040;3.684;2023-01-29T09:12:55;14.43;;;11.18;;
36709;SDS011;22694;51.040;3.684;2023-01-29T09:15:21;14.05;;;11.40;;
36709;SDS011;22694;51.040;3.684;2023-01-29T09:17:47;19.08;;;10.60;;
36709;SDS011;22694;51.040;3.684;2023-01-29T09:20:15;15.18;;;9.65;;
36709;SDS011;22694;51.040;3.684;2023-01-29T09:22:42;14.18;;;11.95;;
36709;SDS011;22694;51.040;3.684;2023-01-29T09:25:08;13.80;;;11.25;;
36709;SDS011;22694;51.040;3.684;2023-01-29T09:27:34;13.52;;;10.52;;
36709;SDS011;22694;51.040;3.684;2023-01-29T09:30:00;14.90;;;11.27;;
36709;SDS011;22694;51.040;3.684;2023-01-29T09:32:26;13.93;;;11.43;;
36709;SDS011;22694;51.040;3.684;2023-01-29T09:34:54;13.02;;;11.07;;
36709;SDS011;22694;51.040;3.684;2023-01-29T09:37:29;14.18;;;10.98;;
36709;SDS011;22694;51.040;3.684;2023-01-29T09:39:55;13.32;;;10.32;;
36709;SDS011;22694;51.040;3.684;2023-01-29T09:42:23;13.45;;;10.85;;
36709;SDS011;22694;51.040;3.684;2023-01-29T09:47:25;14.10;;;11.45;;
36709;SDS011;22694;51.040;3.684;2023-01-29T09:49:54;13.90;;;11.20;;
36709;SDS011;22694;51.040;3.684;2023-01-29T09:52:29;14.30;;;11.55;;
36709;SDS011;22694;51.040;3.684;2023-01-29T09:57:43;13.68;;;10.75;;
36709;SDS011;22694;51.040;3.684;2023-01-29T10:00:19;14.48;;;11.40;;
36709;SDS011;22694;51.040;3.684;2023-01-29T10:14:38;12.80;;;10.63;;
36709;SDS011;22694;51.040;3.684;2023-01-29T10:25:39;12.15;;;10.70;;
36709;SDS011;22694;51.040;3.684;2023-01-29T10:28:16;13.23;;;10.52;;
36709;SDS011;22694;51.040;3.684;2023-01-29T10:30:48;12.85;;;8.90;;
36709;SDS011;22694;51.040;3.684;2023-01-29T10:33:26;11.20;;;8.50;;
36709;SDS011;22694;51.040;3.684;2023-01-29T10:36:02;11.05;;;8.70;;
36709;SDS011;22694;51.040;3.684;2023-01-29T10:38:46;10.93;;;9.30;;
36709;SDS011;22694;51.040;3.684;2023-01-29T10:41:36;11.10;;;9.43;;
36709;SDS011;22694;51.040;3.684;2023-01-29T11:02:43;11.65;;;9.02;;
36709;SDS011;22694;51.040;3.684;2023-01-29T11:05:54;11.23;;;9.48;;
36709;SDS011;22694;51.040;3.684;2023-01-29T11:08:04;10.48;;;8.82;;
36709;SDS011;22694;51.040;3.684;2023-01-29T11:10:39;10.93;;;8.77;;
36709;SDS011;22694;51.040;3.684;2023-01-29T11:13:15;11.55;;;9.75;;
36709;SDS011;22694;51.040;3.684;2023-01-29T11:15:42;11.55;;;9.25;;
36709;SDS011;22694;51.040;3.684;2023-01-29T11:18:09;10.65;;;9.10;;
36709;SDS011;22694;51.040;3.684;2023-01-29T11:20:41;11.93;;;9.60;;
36709;SDS011;22694;51.040;3.684;2023-01-29T11:23:27;10.48;;;9.00;;
36709;SDS011;22694;51.040;3.684;2023-01-29T11:25:55;11.20;;;9.35;;
36709;SDS011;22694;51.040;3.684;2023-01-29T11:28:35;11.35;;;8.85;;
36709;SDS011;22694;51.040;3.684;2023-01-29T11:31:18;11.38;;;9.23;;
36709;SDS011;22694;51.040;3.684;2023-01-29T11:34:04;10.75;;;8.32;;
36709;SDS011;22694;51.040;3.684;2023-01-29T11:36:40;11.57;;;8.70;;
36709;SDS011;22694;51.040;3.684;2023-01-29T11:39:11;10.20;;;8.38;;
36709;SDS011;22694;51.040;3.684;2023-01-29T11:42:02;9.65;;;7.78;;
36709;SDS011;22694;51.040;3.684;2023-01-29T11:44:32;10.07;;;8.75;;
36709;SDS011;22694;51.040;3.684;2023-01-29T11:49:40;11.13;;;8.93;;
36709;SDS011;22694;51.040;3.684;2023-01-29T11:52:14;10.98;;;9.02;;
36709;SDS011;22694;51.040;3.684;2023-01-29T11:54:44;10.27;;;8.82;;
36709;SDS011;22694;51.040;3.684;2023-01-29T11:57:26;11.73;;;8.52;;
36709;SDS011;22694;51.040;3.684;2023-01-29T12:00:00;8.88;;;7.95;;
36709;SDS011;22694;51.040;3.684;2023-01-29T12:05:31;9.98;;;8.65;;
36709;SDS011;22694;51.040;3.684;2023-01-29T12:07:58;9.70;;;8.35;;
36709;SDS011;22694;51.040;3.684;2023-01-29T12:15:34;9.32;;;8.07;;
36709;SDS011;22694;51.040;3.684;2023-01-29T12:18:02;8.95;;;8.05;;
36709;SDS011;22694;51.040;3.684;2023-01-29T12:20:40;10.30;;;8.60;;
36709;SDS011;22694;51.040;3.684;2023-01-29T12:31:22;9.85;;;8.60;;
36709;SDS011;22694;51.040;3.684;2023-01-29T12:34:04;10.02;;;8.98;;
36709;SDS011;22694;51.040;3.684;2023-01-29T12:36:51;9.40;;;8.30;;
36709;SDS011;22694;51.040;3.684;2023-01-29T12:39:23;10.63;;;8.73;;
36709;SDS011;22694;51.040;3.684;2023-01-29T12:41:54;9.07;;;8.02;;
36709;SDS011;22694;51.040;3.684;2023-01-29T12:44:34;9.90;;;8.90;;
36709;SDS011;22694;51.040;3.684;2023-01-29T12:47:06;10.20;;;8.02;;
36709;SDS011;22694;51.040;3.684;2023-01-29T12:49:53;9.13;;;7.93;;
36709;SDS011;22694;51.040;3.684;2023-01-29T12:53:09;11.05;;;8.68;;
36709;SDS011;22694;51.040;3.684;2023-01-29T12:57:49;9.43;;;7.93;;
36709;SDS011;22694;51.040;3.684;2023-01-29T13:00:23;9.70;;;8.07;;
36709;SDS011;22694;51.040;3.684;2023-01-29T13:05:54;8.98;;;8.00;;
36709;SDS011;22694;51.040;3.684;2023-01-29T13:10:53;9.25;;;7.85;;
36709;SDS011;22694;51.040;3.684;2023-01-29T13:15:55;9.77;;;8.20;;
36709;SDS011;22694;51.040;3.684;2023-01-29T13:18:39;8.32;;;7.45;;
36709;SDS011;22694;51.040;3.684;2023-01-29T13:21:12;10.00;;;8.70;;
36709;SDS011;22694;51.040;3.684;2023-01-29T13:23:45;10.48;;;7.97;;
36709;SDS011;22694;51.040;3.684;2023-01-29T13:26:18;8.48;;;7.60;;
36709;SDS011;22694;51.040;3.684;2023-01-29T13:28:45;8.90;;;8.00;;
36709;SDS011;22694;51.040;3.684;2023-01-29T13:33:50;9.98;;;8.13;;
36709;SDS011;22694;51.040;3.684;2023-01-29T13:36:30;9.23;;;8.02;;
36709;SDS011;22694;51.040;3.684;2023-01-29T13:41:44;8.82;;;7.90;;
36709;SDS011;22694;51.040;3.684;2023-01-29T13:44:18;13.55;;;8.20;;
36709;SDS011;22694;51.040;3.684;2023-01-29T13:47:02;10.38;;;8.23;;
36709;SDS011;22694;51.040;3.684;2023-01-29T13:49:45;12.80;;;9.00;;
36709;SDS011;22694;51.040;3.684;2023-01-29T13:57:51;10.88;;;8.80;;
36709;SDS011;22694;51.040;3.684;2023-01-29T14:07:56;10.18;;;8.38;;
36709;SDS011;22694;51.040;3.684;2023-01-29T14:10:27;9.10;;;8.13;;
36709;SDS011;22694;51.040;3.684;2023-01-29T14:13:39;10.30;;;8.43;;
36709;SDS011;22694;51.040;3.684;2023-01-29T14:15:43;10.82;;;8.65;;
36709;SDS011;22694;51.040;3.684;2023-01-29T14:26:19;10.40;;;8.82;;
36709;SDS011;22694;51.040;3.684;2023-01-29T14:28:51;11.57;;;8.93;;
36709;SDS011;22694;51.040;3.684;2023-01-29T14:31:31;9.65;;;8.65;;
36709;SDS011;22694;51.040;3.684;2023-01-29T14:34:00;8.17;;;6.70;;
36709;SDS011;22694;51.040;3.684;2023-01-29T14:36:29;11.63;;;8.75;;
36709;SDS011;22694;51.040;3.684;2023-01-29T14:39:15;10.93;;;9.20;;
36709;SDS011;22694;51.040;3.684;2023-01-29T14:41:49;9.18;;;8.23;;
36709;SDS011;22694;51.040;3.684;2023-01-29T14:47:20;9.32;;;8.00;;
36709;SDS011;22694;51.040;3.684;2023-01-29T14:52:18;9.02;;;8.13;;
36709;SDS011;22694;51.040;3.684;2023-01-29T14:55:06;9.82;;;8.45;;
36709;SDS011;22694;51.040;3.684;2023-01-29T14:57:35;10.77;;;8.07;;
36709;SDS011;22694;51.040;3.684;2023-01-29T15:00:03;9.25;;;8.30;;
36709;SDS011;22694;51.040;3.684;2023-01-29T15:02:36;10.00;;;8.48;;
36709;SDS011;22694;51.040;3.684;2023-01-29T15:05:06;10.98;;;8.80;;
36709;SDS011;22694;51.040;3.684;2023-01-29T15:07:43;10.05;;;8.90;;
36709;SDS011;22694;51.040;3.684;2023-01-29T15:13:13;10.82;;;8.95;;
36709;SDS011;22694;51.040;3.684;2023-01-29T15:15:59;9.63;;;8.45;;
36709;SDS011;22694;51.040;3.684;2023-01-29T15:18:36;9.65;;;8.15;;
36709;SDS011;22694;51.040;3.684;2023-01-29T15:21:11;10.60;;;9.13;;
36709;SDS011;22694;51.040;3.684;2023-01-29T15:23:39;9.65;;;8.02;;
36709;SDS011;22694;51.040;3.684;2023-01-29T15:26:06;9.57;;;8.45;;
36709;SDS011;22694;51.040;3.684;2023-01-29T15:28:35;8.77;;;7.88;;
36709;SDS011;22694;51.040;3.684;2023-01-29T15:31:03;8.57;;;7.68;;
36709;SDS011;22694;51.040;3.684;2023-01-29T15:33:31;9.02;;;7.95;;
36709;SDS011;22694;51.040;3.684;2023-01-29T15:36:02;7.82;;;7.03;;
36709;SDS011;22694;51.040;3.684;2023-01-29T15:38:30;7.97;;;7.18;;
36709;SDS011;22694;51.040;3.684;2023-01-29T15:40:57;10.00;;;8.02;;
36709;SDS011;22694;51.040;3.684;2023-01-29T15:43:29;8.43;;;7.53;;
36709;SDS011;22694;51.040;3.684;2023-01-29T15:45:59;7.78;;;6.97;;
36709;SDS011;22694;51.040;3.684;2023-01-29T15:48:36;9.20;;;6.55;;
36709;SDS011;22694;51.040;3.684;2023-01-29T15:51:09;6.70;;;6.03;;
36709;SDS011;22694;51.040;3.684;2023-01-29T15:53:41;12.48;;;5.93;;
36709;SDS011;22694;51.040;3.684;2023-01-29T15:56:18;14.57;;;6.05;;
36709;SDS011;22694;51.040;3.684;2023-01-29T15:58:49;11.05;;;5.88;;
36709;SDS011;22694;51.040;3.684;2023-01-29T16:01:16;8.15;;;5.68;;
36709;SDS011;22694;51.040;3.684;2023-01-29T16:03:42;6.93;;;5.20;;
36709;SDS011;22694;51.040;3.684;2023-01-29T16:06:09;6.45;;;5.25;;
36709;SDS011;22694;51.040;3.684;2023-01-29T16:08:35;7.88;;;5.38;;
36709;SDS011;22694;51.040;3.684;2023-01-29T16:11:04;8.98;;;5.20;;
36709;SDS011;22694;51.040;3.684;2023-01-29T16:13:38;8.88;;;6.10;;
36709;SDS011;22694;51.040;3.684;2023-01-29T16:18:43;6.88;;;6.15;;
36709;SDS011;22694;51.040;3.684;2023-01-29T16:21:16;8.02;;;5.70;;
36709;SDS011;22694;51.040;3.684;2023-01-29T16:23:50;7.90;;;6.05;;
36709;SDS011;22694;51.040;3.684;2023-01-29T16:26:19;7.50;;;6.15;;
36709;SDS011;22694;51.040;3.684;2023-01-29T16:28:49;8.60;;;6.30;;
36709;SDS011;22694;51.040;3.684;2023-01-29T16:31:28;8.43;;;5.97;;
36709;SDS011;22694;51.040;3.684;2023-01-29T16:33:56;6.95;;;5.70;;
36709;SDS011;22694;51.040;3.684;2023-01-29T16:36:27;7.55;;;6.25;;
36709;SDS011;22694;51.040;3.684;2023-01-29T16:38:54;6.95;;;5.80;;
36709;SDS011;22694;51.040;3.684;2023-01-29T16:43:59;11.40;;;5.95;;
36709;SDS011;22694;51.040;3.684;2023-01-29T16:49:00;9.80;;;6.00;;
36709;SDS011;22694;51.040;3.684;2023-01-29T16:51:28;9.00;;;6.10;;
36709;SDS011;22694;51.040;3.684;2023-01-29T16:54:13;6.97;;;6.03;;
36709;SDS011;22694;51.040;3.684;2023-01-29T16:56:43;10.45;;;6.78;;
36709;SDS011;22694;51.040;3.684;2023-01-29T16:59:19;9.85;;;7.00;;
36709;SDS011;22694;51.040;3.684;2023-01-29T17:01:50;10.07;;;6.35;;
36709;SDS011;22694;51.040;3.684;2023-01-29T17:04:18;9.90;;;7.90;;
36709;SDS011;22694;51.040;3.684;2023-01-29T17:06:45;8.77;;;7.55;;
36709;SDS011;22694;51.040;3.684;2023-01-29T17:09:20;8.93;;;7.55;;
36709;SDS011;22694;51.040;3.684;2023-01-29T17:11:52;9.00;;;8.10;;
36709;SDS011;22694;51.040;3.684;2023-01-29T17:14:21;9.68;;;8.00;;
36709;SDS011;22694;51.040;3.684;2023-01-29T17:16:49;10.20;;;8.93;;
36709;SDS011;22694;51.040;3.684;2023-01-29T17:19:19;9.43;;;7.80;;
36709;SDS011;22694;51.040;3.684;2023-01-29T17:21:45;9.75;;;8.18;;
36709;SDS011;22694;51.040;3.684;2023-01-29T17:24:11;9.88;;;7.85;;
36709;SDS011;22694;51.040;3.684;2023-01-29T17:26:37;8.45;;;7.50;;
36709;SDS011;22694;51.040;3.684;2023-01-29T17:29:03;10.00;;;8.23;;